Time;durP1;ratioP1;P1;durP2;ratioP2;P2;SDS_P1;SDS_P2;PMS_P1;PMS_P2;Temp;Humidity;BMP_temperature;BMP_pressure;BME280_temperature;BME280_humidity;BME280_pressure;Samples;Min_cycle;Max_cycle;Signal;HPM_P1;HPM_P2
2021/06/09 00:01:11;;;;;;;11.30;10.18;;;;;;;22.22;53.86;100448.72;4938335;28;20506;-86
2021/06/09 00:03:38;;;;;;;11.75;10.55;;;;;;;22.19;54.08;100446.31;4956901;28;20500;-86
2021/06/09 00:06:05;;;;;;;11.68;10.43;;;;;;;22.16;54.12;100449.28;4956400;28;20061;-86
2021/06/09 00:08:41;;;;;;;11.93;10.52;;;;;;;22.10;54.34;100449.88;4956540;28;20061;-86
2021/06/09 00:11:08;;;;;;;11.55;10.18;;;;;;;22.10;54.24;100448.03;4957514;28;20054;-86
2021/06/09 00:13:36;;;;;;;12.93;10.82;;;;;;;22.06;54.26;100445.78;4959925;28;20054;-86
2021/06/09 00:16:08;;;;;;;12.80;11.18;;;;;;;22.01;54.70;100451.59;4946483;29;20477;-86
2021/06/09 00:18:35;;;;;;;12.02;10.40;;;;;;;21.99;54.35;100449.03;4940987;29;20062;-86
2021/06/09 00:21:03;;;;;;;10.63;9.48;;;;;;;21.96;54.40;100453.84;4941296;29;20081;-86
2021/06/09 00:23:31;;;;;;;10.48;9.48;;;;;;;21.93;54.21;100454.13;4957068;29;20126;-86
2021/06/09 00:26:02;;;;;;;19.80;11.48;;;;;;;21.89;54.33;100442.88;4956728;29;20062;-86
2021/06/09 00:28:31;;;;;;;11.52;10.40;;;;;;;21.85;54.56;100452.19;4940857;29;20070;-86
2021/06/09 00:31:02;;;;;;;12.45;11.05;;;;;;;21.83;54.94;100454.19;4941707;28;20055;-86
2021/06/09 00:33:31;;;;;;;13.88;10.90;;;;;;;21.80;54.64;100454.47;4940436;29;20051;-86
2021/06/09 00:35:58;;;;;;;12.43;11.07;;;;;;;21.77;54.50;100452.91;4940830;29;20467;-86
2021/06/09 00:38:26;;;;;;;11.13;9.32;;;;;;;21.72;54.53;100447.13;4956770;29;20069;-86
2021/06/09 00:40:59;;;;;;;10.73;9.60;;;;;;;21.66;54.70;100443.19;4956263;29;20070;-86
2021/06/09 00:43:28;;;;;;;11.50;10.30;;;;;;;21.65;54.62;100446.00;4956777;29;20051;-86
2021/06/09 00:45:56;;;;;;;12.15;10.77;;;;;;;21.60;54.75;100446.41;4956292;29;20058;-85
2021/06/09 00:48:27;;;;;;;11.80;9.65;;;;;;;21.56;54.64;100443.19;4956427;28;20059;-83
2021/06/09 00:50:55;;;;;;;9.52;8.55;;;;;;;21.52;54.71;100444.44;4940638;29;20067;-84
2021/06/09 00:53:38;;;;;;;9.07;8.27;;;;;;;21.47;55.02;100444.91;4956203;29;20053;-87
2021/06/09 00:56:08;;;;;;;11.07;9.80;;;;;;;21.44;55.21;100445.16;4956480;29;20051;-87
2021/06/09 00:58:37;;;;;;;11.63;10.25;;;;;;;21.40;55.06;100434.88;4956485;29;20059;-87
2021/06/09 01:01:05;;;;;;;10.55;9.45;;;;;;;21.38;55.11;100442.22;4940557;29;20146;-87
2021/06/09 01:03:33;;;;;;;12.43;9.50;;;;;;;21.35;55.20;100430.78;4956389;28;20106;-87
2021/06/09 01:06:02;;;;;;;10.45;9.38;;;;;;;21.34;55.24;100429.09;4971076;28;20418;-87
2021/06/09 01:08:33;;;;;;;9.40;8.50;;;;;;;21.32;55.28;100435.59;4959454;28;20419;-85
2021/06/09 01:11:00;;;;;;;12.13;10.88;;;;;;;21.32;55.65;100433.78;4975611;28;20483;-86
2021/06/09 01:13:30;;;;;;;12.73;11.02;;;;;;;21.30;55.96;100440.25;4959140;28;20047;-86
2021/06/09 01:15:58;;;;;;;14.25;10.57;;;;;;;21.31;55.71;100436.59;4959184;28;20459;-86
2021/06/09 01:18:25;;;;;;;11.88;10.48;;;;;;;21.31;55.61;100439.25;4959377;28;20142;-86
2021/06/09 01:20:57;;;;;;;10.93;9.82;;;;;;;21.29;55.96;100433.19;4956257;28;20069;-86
2021/06/09 01:23:26;;;;;;;11.25;9.88;;;;;;;21.32;55.59;100435.59;4939380;29;20055;-86
2021/06/09 01:25:53;;;;;;;12.55;10.65;;;;;;;21.33;55.66;100434.59;4955848;29;20482;-86
2021/06/09 01:28:24;;;;;;;13.27;9.55;;;;;;;21.31;55.74;100437.41;4939881;29;20055;-86
2021/06/09 01:30:51;;;;;;;11.55;9.70;;;;;;;21.34;55.61;100436.28;4955951;29;20055;-85
2021/06/09 01:33:20;;;;;;;11.23;10.02;;;;;;;21.35;55.71;100436.13;4939996;29;20083;-86
2021/06/09 01:35:51;;;;;;;11.25;10.15;;;;;;;21.36;55.62;100431.63;4939421;29;20055;-85
2021/06/09 01:38:17;;;;;;;11.27;10.15;;;;;;;21.38;55.41;100440.38;4948209;28;20065;-86
2021/06/09 01:40:44;;;;;;;11.15;9.07;;;;;;;21.37;55.61;100438.69;4957205;28;20057;-86
2021/06/09 01:43:11;;;;;;;11.48;9.73;;;;;;;21.37;55.33;100436.00;4974995;28;20517;-86
2021/06/09 01:45:39;;;;;;;12.13;9.10;;;;;;;21.37;55.22;100433.31;4958821;28;20499;-86
2021/06/09 01:48:08;;;;;;;10.80;9.40;;;;;;;21.36;55.35;100431.63;4974986;28;20468;-86
2021/06/09 01:50:37;;;;;;;10.80;8.60;;;;;;;21.34;55.43;100418.38;4958668;28;20058;-86
2021/06/09 01:53:04;;;;;;;10.48;8.90;;;;;;;21.33;55.22;100426.56;4974556;28;20057;-86
2021/06/09 01:55:34;;;;;;;12.10;9.90;;;;;;;21.29;55.44;100426.00;4956826;28;20061;-85
2021/06/09 01:58:01;;;;;;;10.60;9.23;;;;;;;21.28;55.34;100431.50;4974475;28;20069;-86
2021/06/09 02:00:45;;;;;;;11.32;9.15;;;;;;;21.22;55.41;100427.56;4975003;28;20054;-85
2021/06/09 02:03:12;;;;;;;;;;;;;;;21.22;54.85;100422.19;4959022;28;20117;-83
2021/06/09 02:05:39;;;;;;;9.35;8.45;;;;;;;21.25;54.91;100418.38;4958600;28;19928;-83
2021/06/09 02:08:10;;;;;;;11.52;9.10;;;;;;;21.19;55.11;100426.00;4958431;28;20065;-84
2021/06/09 02:10:38;;;;;;;9.10;8.20;;;;;;;21.17;55.09;100424.47;4972792;28;20472;-83
2021/06/09 02:13:09;;;;;;;9.55;7.95;;;;;;;21.12;55.10;100419.50;4955003;28;20055;-83
2021/06/09 02:15:36;;;;;;;10.75;9.45;;;;;;;21.08;55.18;100418.94;4954590;29;20051;-83
2021/06/09 02:18:37;;;;;;;10.07;9.02;;;;;;;21.05;55.27;100413.88;4955022;29;20547;-83
2021/06/09 02:20:59;;;;;;;10.20;8.88;;;;;;;21.01;55.31;100417.00;4954152;28;20051;-83
2021/06/09 02:23:43;;;;;;;13.23;9.65;;;;;;;20.92;55.88;100416.84;4954701;29;20411;-84
2021/06/09 02:26:10;;;;;;;10.60;9.50;;;;;;;20.92;55.38;100415.97;4938989;29;20467;-83
2021/06/09 02:28:38;;;;;;;9.70;8.75;;;;;;;20.86;55.70;100408.50;4954423;29;20055;-83
2021/06/09 02:31:11;;;;;;;12.77;9.82;;;;;;;20.79;56.37;100402.84;4938812;29;20504;-83
2021/06/09 02:33:38;;;;;;;12.27;9.48;;;;;;;20.76;55.85;100406.66;4938680;28;20051;-83
2021/06/09 02:36:05;;;;;;;10.85;9.75;;;;;;;20.70;56.09;100400.00;4937230;29;20059;-83
2021/06/09 02:38:36;;;;;;;10.50;9.40;;;;;;;20.64;56.10;100399.72;4937665;29;20061;-83
2021/06/09 02:41:03;;;;;;;13.18;9.07;;;;;;;20.60;55.89;100398.31;4938392;29;20066;-83
2021/06/09 02:43:32;;;;;;;10.07;9.05;;;;;;;20.53;55.99;100400.69;4939233;29;20452;-83
2021/06/09 02:46:22;;;;;;;9.93;8.82;;;;;;;20.43;56.35;100411.34;4954208;29;20058;-83
2021/06/09 02:48:57;;;;;;;10.00;8.38;;;;;;;20.41;56.40;100410.66;4938440;29;20058;-83
2021/06/09 02:51:29;;;;;;;11.25;9.35;;;;;;;20.37;56.59;100404.69;4938678;29;20496;-83
2021/06/09 02:54:18;;;;;;;11.23;8.95;;;;;;;20.31;56.67;100408.75;4937977;29;20057;-83
2021/06/09 02:57:01;;;;;;;11.15;9.20;;;;;;;20.30;56.74;100411.59;4954263;29;20066;-84
2021/06/09 03:05:52;;;;;;;9.82;8.40;;;;;;;20.18;56.80;100409.00;4955506;29;20158;-86
2021/06/09 03:08:54;;;;;;;9.68;8.68;;;;;;;20.11;56.93;100415.03;4938661;28;20706;-86
2021/06/09 03:11:31;;;;;;;12.30;9.25;;;;;;;20.08;56.99;100397.44;4932919;29;20059;-86
2021/06/09 03:16:55;;;;;;;11.15;9.65;;;;;;;20.03;57.00;100405.84;4954953;29;20062;-85
2021/06/09 03:19:36;;;;;;;11.50;10.13;;;;;;;19.99;57.74;100406.22;4953762;29;20055;-86
2021/06/09 03:22:22;;;;;;;11.25;8.80;;;;;;;19.97;57.42;100402.84;4937630;29;20051;-86
2021/06/09 03:24:53;;;;;;;13.63;9.30;;;;;;;19.97;58.05;100409.03;4957878;28;20046;-85
2021/06/09 03:27:32;;;;;;;12.45;8.90;;;;;;;19.96;58.10;100409.16;4972921;28;20054;-86
2021/06/09 03:30:09;;;;;;;9.45;8.55;;;;;;;19.96;58.09;100406.50;4972728;28;20057;-85
2021/06/09 03:32:51;;;;;;;12.15;8.57;;;;;;;19.97;58.13;100400.16;4957367;28;20063;-86
2021/06/09 03:35:22;;;;;;;10.50;8.20;;;;;;;20.01;57.68;100398.94;4956451;28;20420;-85
2021/06/09 03:37:53;;;;;;;8.93;8.00;;;;;;;20.01;57.74;100396.28;4956817;28;20055;-85
2021/06/09 03:40:47;;;;;;;9.10;7.78;;;;;;;20.02;57.88;100401.50;4957266;28;20388;-86
2021/06/09 03:43:18;;;;;;;8.43;6.90;;;;;;;20.02;57.73;100401.50;4972508;28;20415;-85
2021/06/09 03:45:50;;;;;;;7.88;7.10;;;;;;;20.02;57.78;100401.50;4957268;28;20460;-85
2021/06/09 03:48:19;;;;;;;8.43;6.90;;;;;;;20.03;57.59;100405.84;4978031;28;20059;-86
2021/06/09 03:50:48;;;;;;;8.35;7.50;;;;;;;20.03;57.67;100399.66;4976670;28;20054;-85
2021/06/09 03:53:14;;;;;;;8.52;7.70;;;;;;;20.04;57.71;100404.84;4961053;28;20502;-86
2021/06/09 03:55:44;;;;;;;9.52;8.20;;;;;;;20.05;57.97;100403.03;4960812;28;20109;-86
2021/06/09 03:58:14;;;;;;;7.57;6.30;;;;;;;20.07;57.89;100400.25;4959662;28;20137;-86
2021/06/09 04:00:42;;;;;;;8.30;7.03;;;;;;;20.07;57.55;100402.91;4976633;28;20067;-86
2021/06/09 04:03:10;;;;;;;6.95;6.35;;;;;;;20.10;57.49;100403.47;4977039;28;20451;-85
2021/06/09 04:05:40;;;;;;;9.18;7.30;;;;;;;20.11;57.68;100393.66;4947848;29;20058;-86
2021/06/09 04:08:13;;;;;;;11.23;7.97;;;;;;;20.10;57.80;100398.13;4956974;28;20055;-86
2021/06/09 04:10:42;;;;;;;8.88;6.80;;;;;;;20.11;57.38;100394.47;4957553;29;20472;-87
2021/06/09 04:13:11;;;;;;;10.05;8.10;;;;;;;20.09;57.70;100393.78;4941522;29;20077;-86
2021/06/09 04:15:40;;;;;;;11.45;8.23;;;;;;;20.09;57.26;100393.78;4956541;29;20563;-86
2021/06/09 04:18:08;;;;;;;9.82;8.13;;;;;;;20.09;57.80;100393.78;4957295;29;20408;-86
2021/06/09 04:20:38;;;;;;;10.35;7.18;;;;;;;20.09;57.37;100390.25;4975465;28;20065;-83
2021/06/09 04:23:05;;;;;;;8.48;7.55;;;;;;;20.07;57.21;100387.72;4946325;28;20062;-83
2021/06/09 04:25:33;;;;;;;9.50;7.60;;;;;;;20.07;57.09;100392.22;4940814;29;20051;-83
2021/06/09 04:28:01;;;;;;;9.15;8.25;;;;;;;20.05;57.27;100390.53;4956732;29;20055;-83
2021/06/09 04:30:30;;;;;;;11.02;8.05;;;;;;;20.05;57.62;100393.22;4956625;29;20057;-86
2021/06/09 04:33:02;;;;;;;10.38;7.50;;;;;;;20.02;57.53;100390.81;4946146;28;20059;-86
2021/06/09 04:35:42;;;;;;;12.15;9.45;;;;;;;20.02;57.94;100384.59;4975679;28;20057;-87
2021/06/09 04:38:18;;;;;;;8.77;7.90;;;;;;;20.01;58.07;100383.78;4960061;28;20051;-86
2021/06/09 04:40:46;;;;;;;8.27;7.18;;;;;;;20.03;57.47;100386.28;4960331;28;20054;-86
2021/06/09 04:43:14;;;;;;;9.75;8.00;;;;;;;20.02;57.85;100385.47;4976462;28;20051;-86
2021/06/09 04:45:40;;;;;;;7.72;7.03;;;;;;;20.02;57.70;100389.94;4960326;28;20046;-84
2021/06/09 04:48:14;;;;;;;10.48;7.72;;;;;;;19.99;57.91;100384.84;4946173;28;20470;-84
2021/06/09 04:50:44;;;;;;;10.73;7.97;;;;;;;19.99;57.75;100387.53;4957689;29;20061;-84
2021/06/09 04:53:21;;;;;;;9.93;7.50;;;;;;;19.95;58.25;100380.75;4956978;28;20400;-87
2021/06/09 04:55:55;;;;;;;9.57;7.57;;;;;;;19.97;57.79;100384.97;4940963;29;20090;-87
2021/06/09 04:58:25;;;;;;;9.55;7.97;;;;;;;19.97;58.18;100378.78;4956033;28;20059;-86
2021/06/09 05:00:53;;;;;;;10.30;7.47;;;;;;;19.97;57.74;100382.31;4959852;28;20126;-86
2021/06/09 05:03:20;;;;;;;9.10;8.15;;;;;;;19.96;57.80;100382.44;4975235;28;20491;-84
2021/06/09 05:05:50;;;;;;;8.73;7.80;;;;;;;19.96;57.54;100379.78;4956536;28;20415;-84
2021/06/09 05:08:17;;;;;;;9.07;7.82;;;;;;;19.95;57.95;100380.75;4956165;28;20061;-83
2021/06/09 05:10:46;;;;;;;10.07;7.80;;;;;;;19.95;57.54;100368.22;4956192;29;20141;-83
2021/06/09 05:13:26;;;;;;;9.85;7.55;;;;;;;19.92;58.12;100366.66;4955901;29;20098;-84
2021/06/09 05:15:59;;;;;;;8.93;7.40;;;;;;;19.96;57.87;100372.56;4966282;28;20050;-83
2021/06/09 05:18:32;;;;;;;9.38;7.63;;;;;;;19.96;58.13;100369.09;4958593;28;20047;-84
2021/06/09 05:21:01;;;;;;;8.40;7.22;;;;;;;19.98;58.05;100373.34;4975248;28;20085;-86
2021/06/09 05:23:44;;;;;;;10.25;7.28;;;;;;;19.97;58.45;100365.41;4959072;28;20065;-86
2021/06/09 05:26:13;;;;;;;9.20;8.00;;;;;;;20.02;58.31;100369.41;4959639;28;20063;-86
2021/06/09 05:28:58;;;;;;;9.02;7.72;;;;;;;20.03;58.52;100373.78;4974969;28;20076;-86
2021/06/09 05:31:25;;;;;;;8.07;7.28;;;;;;;20.11;58.35;100373.09;4939729;29;20059;-86
2021/06/09 05:33:54;;;;;;;8.77;7.95;;;;;;;20.17;58.47;100377.06;4955736;29;20060;-86
2021/06/09 05:36:26;;;;;;;8.25;7.45;;;;;;;20.21;58.60;100374.94;4939769;29;20059;-86
2021/06/09 05:38:54;;;;;;;10.70;7.22;;;;;;;20.27;58.73;100375.28;4939566;29;20059;-86
2021/06/09 05:41:24;;;;;;;9.77;8.07;;;;;;;20.32;58.85;100374.88;4955603;29;20139;-86
2021/06/09 05:43:52;;;;;;;11.20;7.95;;;;;;;20.37;58.30;100375.28;4965359;28;20047;-86
2021/06/09 05:46:19;;;;;;;8.35;7.53;;;;;;;20.43;58.49;100376.59;4969727;28;20420;-86
2021/06/09 05:48:47;;;;;;;7.95;7.25;;;;;;;20.50;58.29;100376.88;4940038;29;20165;-86
2021/06/09 05:51:16;;;;;;;9.07;7.80;;;;;;;20.55;58.38;100375.50;4939657;29;20476;-86
2021/06/09 05:53:44;;;;;;;9.55;8.52;;;;;;;20.65;58.24;100377.34;4955017;29;20055;-86
2021/06/09 05:56:11;;;;;;;9.68;8.40;;;;;;;20.71;58.27;100379.47;4939510;29;20408;-86
2021/06/09 05:58:39;;;;;;;9.38;7.18;;;;;;;20.79;58.04;100379.59;4970971;28;20089;-86
2021/06/09 06:01:12;;;;;;;8.48;7.68;;;;;;;20.85;58.41;100388.06;4974460;28;20069;-86
2021/06/09 06:03:41;;;;;;;9.45;8.38;;;;;;;20.95;58.35;100388.94;4975393;28;20094;-86
2021/06/09 06:06:10;;;;;;;9.07;7.85;;;;;;;21.01;58.02;100390.22;4974371;28;20055;-86
2021/06/09 06:08:39;;;;;;;9.43;7.90;;;;;;;21.06;57.77;100382.59;4958001;28;20057;-86
2021/06/09 06:11:12;;;;;;;8.63;7.75;;;;;;;21.11;57.92;100385.69;4971968;28;20138;-86
2021/06/09 06:13:48;;;;;;;13.15;8.52;;;;;;;21.18;57.51;100385.97;4938835;29;20051;-84
2021/06/09 06:16:18;;;;;;;7.88;7.18;;;;;;;21.26;57.18;100387.97;4954993;28;20502;-84
2021/06/09 06:18:47;;;;;;;11.45;8.20;;;;;;;21.32;57.49;100387.38;4954789;29;20135;-87
2021/06/09 06:21:19;;;;;;;8.05;7.22;;;;;;;21.37;57.49;100382.44;4939173;29;20141;-87
2021/06/09 06:23:47;;;;;;;9.18;7.95;;;;;;;21.46;57.20;100394.16;4954781;29;20055;-84
2021/06/09 06:26:24;;;;;;;9.20;8.00;;;;;;;21.47;57.61;100390.47;4959473;28;20055;-84
2021/06/09 06:28:52;;;;;;;9.15;8.25;;;;;;;21.56;57.43;100383.38;4938677;29;20154;-83
2021/06/09 06:31:28;;;;;;;8.07;7.28;;;;;;;21.58;57.56;100379.59;4954610;29;20055;-83
2021/06/09 06:33:59;;;;;;;10.80;7.93;;;;;;;21.66;57.54;100381.56;4938571;29;20052;-83
2021/06/09 06:36:27;;;;;;;9.40;7.18;;;;;;;21.74;57.07;100380.84;4954905;29;20145;-83
2021/06/09 06:39:02;;;;;;;8.93;8.07;;;;;;;21.78;57.46;100376.91;4954855;28;20411;-83
2021/06/09 06:41:30;;;;;;;10.00;6.82;;;;;;;21.87;57.45;100378.69;4957663;28;20078;-83
2021/06/09 06:43:57;;;;;;;9.90;8.48;;;;;;;21.95;57.48;100385.16;4957383;28;20055;-83
2021/06/09 06:46:25;;;;;;;12.15;8.45;;;;;;;22.02;57.43;100380.91;4973607;28;20059;-84
2021/06/09 06:48:54;;;;;;;8.23;7.43;;;;;;;22.10;57.39;100381.00;4957785;28;20051;-83
2021/06/09 06:51:23;;;;;;;10.32;8.68;;;;;;;22.19;57.23;100384.63;4973661;28;20510;-83
2021/06/09 06:53:54;;;;;;;13.43;8.98;;;;;;;22.28;56.98;100388.28;4972753;28;20058;-83
2021/06/09 06:56:24;;;;;;;8.85;7.95;;;;;;;22.35;56.92;100386.66;4957412;28;20130;-83
2021/06/09 06:58:51;;;;;;;8.65;7.78;;;;;;;22.45;56.90;100383.09;4973398;28;20055;-83
2021/06/09 07:01:22;;;;;;;11.63;9.75;;;;;;;22.52;56.52;100394.91;4974580;28;20059;-84
2021/06/09 07:03:50;;;;;;;9.98;9.02;;;;;;;22.60;56.43;100381.63;4957089;28;20050;-84
2021/06/09 07:06:18;;;;;;;9.38;8.45;;;;;;;22.68;56.71;100388.09;4974307;28;20050;-86
2021/06/09 07:08:47;;;;;;;9.75;8.77;;;;;;;22.73;56.44;100383.91;4968526;28;20051;-87
2021/06/09 07:11:14;;;;;;;10.10;9.07;;;;;;;22.82;56.13;100392.06;4953523;29;20133;-84
2021/06/09 07:13:43;;;;;;;10.77;9.68;;;;;;;22.88;56.34;100388.78;4938221;29;20059;-86
2021/06/09 07:16:11;;;;;;;10.40;8.75;;;;;;;22.93;56.28;100391.84;4953613;29;20055;-87
2021/06/09 07:18:48;;;;;;;12.25;11.05;;;;;;;22.98;55.47;100394.91;4953674;29;20051;-87
2021/06/09 07:21:21;;;;;;;11.82;10.18;;;;;;;23.02;55.83;100388.25;4937460;29;20059;-84
2021/06/09 07:23:48;;;;;;;12.18;10.05;;;;;;;23.10;56.02;100392.00;4949740;28;20502;-87
2021/06/09 07:26:17;;;;;;;11.80;10.40;;;;;;;23.15;56.16;100395.06;4956832;28;20516;-86
2021/06/09 07:28:49;;;;;;;13.00;9.25;;;;;;;23.20;55.85;100391.91;4956950;28;20454;-86
2021/06/09 07:31:22;;;;;;;12.80;10.95;;;;;;;23.24;56.29;100388.75;4956728;28;20054;-84
2021/06/09 07:33:50;;;;;;;;;;;;;;;23.29;56.12;100386.44;4956903;28;20062;-84
2021/06/09 07:36:22;;;;;;;10.65;9.45;;;;;;;23.39;56.24;100390.91;4956501;28;20363;-83
2021/06/09 07:39:09;;;;;;;10.02;9.10;;;;;;;23.40;55.85;100392.63;4937762;29;20059;-84
2021/06/09 07:41:40;;;;;;;11.00;9.52;;;;;;;23.50;56.11;100392.50;4956080;28;20495;-84
2021/06/09 07:44:25;;;;;;;11.70;10.52;;;;;;;23.53;55.57;100392.19;4956893;28;20481;-84
2021/06/09 07:46:55;;;;;;;11.98;10.60;;;;;;;23.63;55.38;100386.72;4957040;28;20069;-83
2021/06/09 07:49:23;;;;;;;11.02;9.93;;;;;;;23.68;55.63;100396.00;4956915;28;20063;-84
2021/06/09 07:51:50;;;;;;;10.73;9.68;;;;;;;23.74;55.60;100386.44;4960699;28;20055;-84
2021/06/09 07:54:18;;;;;;;10.00;9.00;;;;;;;23.81;55.24;100381.31;4953199;29;20061;-83
2021/06/09 07:56:46;;;;;;;15.23;9.98;;;;;;;23.88;55.14;100386.88;4953251;29;20415;-87
2021/06/09 07:59:20;;;;;;;11.10;9.98;;;;;;;23.93;54.60;100395.31;4954854;29;20055;-87
2021/06/09 08:01:48;;;;;;;13.15;10.93;;;;;;;24.02;54.25;100390.78;4955212;29;20053;-84
2021/06/09 08:04:16;;;;;;;14.18;9.77;;;;;;;24.08;54.68;100390.16;4937856;29;20111;-84
2021/06/09 08:06:43;;;;;;;10.52;9.10;;;;;;;24.15;53.72;100391.22;4971380;28;20501;-84
2021/06/09 08:09:14;;;;;;;10.55;9.20;;;;;;;24.22;54.69;100391.41;4972878;28;20069;-84
2021/06/09 08:11:43;;;;;;;10.70;9.60;;;;;;;24.30;54.44;100393.31;4957409;28;20516;-84
2021/06/09 08:14:15;;;;;;;10.05;8.45;;;;;;;24.37;53.20;100393.50;4957526;28;20139;-84
2021/06/09 08:16:43;;;;;;;11.85;8.55;;;;;;;24.47;53.82;100388.81;4956838;28;20051;-84
2021/06/09 08:19:10;;;;;;;13.77;8.80;;;;;;;24.55;53.71;100391.53;4951524;29;20065;-84
2021/06/09 08:21:37;;;;;;;9.95;8.65;;;;;;;24.64;53.55;100396.94;4953123;29;20061;-84
2021/06/09 08:24:06;;;;;;;10.57;8.88;;;;;;;24.70;53.98;100396.28;4953124;28;20154;-84
2021/06/09 08:26:33;;;;;;;11.02;9.48;;;;;;;24.78;53.71;100390.91;4954388;29;20060;-86
2021/06/09 08:29:00;;;;;;;9.82;8.82;;;;;;;24.86;53.96;100387.44;4937243;29;20055;-86
2021/06/09 08:31:29;;;;;;;10.60;8.73;;;;;;;24.93;52.76;100387.63;4952970;29;20062;-87
2021/06/09 08:33:58;;;;;;;11.35;8.55;;;;;;;25.00;53.34;100385.91;4967511;28;20436;-87
2021/06/09 08:36:26;;;;;;;10.35;9.35;;;;;;;25.07;52.95;100392.34;4953255;29;20081;-86
2021/06/09 08:38:56;;;;;;;10.38;9.38;;;;;;;25.16;53.68;100398.59;4956678;29;20407;-86
2021/06/09 08:41:28;;;;;;;10.43;9.32;;;;;;;25.23;52.18;100398.75;4956477;29;20051;-83
2021/06/09 08:46:57;;;;;;;10.07;9.07;;;;;;;25.40;52.53;100393.31;5014154;28;20049;-86
2021/06/09 08:49:24;;;;;;;10.55;9.02;;;;;;;25.47;52.39;100405.97;4999552;28;20514;-87
2021/06/09 08:51:54;;;;;;;9.95;8.57;;;;;;;25.55;52.22;100398.88;4999443;28;20128;-87
2021/06/09 08:54:23;;;;;;;10.88;8.57;;;;;;;25.62;52.21;100394.53;4998992;28;20089;-87
2021/06/09 08:56:51;;;;;;;8.13;7.35;;;;;;;25.69;52.10;100398.22;4999021;28;20050;-86
2021/06/09 08:59:22;;;;;;;9.75;7.93;;;;;;;25.77;51.63;100400.06;4999215;28;20514;-87
2021/06/09 09:01:50;;;;;;;9.02;8.18;;;;;;;25.86;51.83;100398.16;4998993;28;20060;-87
2021/06/09 09:04:18;;;;;;;7.88;7.05;;;;;;;25.94;51.45;100389.22;4998844;28;20061;-87
2021/06/09 09:06:54;;;;;;;8.07;7.38;;;;;;;25.99;51.06;100397.63;4998886;28;20561;-87
2021/06/09 09:09:23;;;;;;;7.70;6.97;;;;;;;26.08;51.19;100399.28;4998585;28;20057;-87
2021/06/09 09:11:49;;;;;;;7.43;6.72;;;;;;;26.18;51.01;100400.94;4999224;28;20406;-87
2021/06/09 09:14:18;;;;;;;8.32;7.32;;;;;;;26.27;50.60;100402.59;4998548;28;20417;-86
2021/06/09 09:17:01;;;;;;;7.20;6.45;;;;;;;26.32;50.41;100402.09;4998213;28;20056;-87
2021/06/09 09:19:36;;;;;;;6.53;5.93;;;;;;;26.39;49.55;100398.50;4998489;28;20076;-84
2021/06/09 09:24:48;;;;;;;7.10;6.22;;;;;;;26.57;50.27;100401.97;5240840;22;20496;-83
2021/06/09 09:27:24;;;;;;;6.03;5.43;;;;;;;26.67;50.25;100403.44;5037546;28;20396;-83
2021/06/09 09:30:07;;;;;;;6.55;5.85;;;;;;;26.75;50.32;100398.97;5031718;28;20119;-84
2021/06/09 09:32:36;;;;;;;6.60;5.32;;;;;;;26.88;49.90;100398.41;5017261;28;20078;-83
2021/06/09 09:35:13;;;;;;;6.40;5.18;;;;;;;26.95;49.27;100407.50;5017413;28;20052;-83
2021/06/09 09:37:40;;;;;;;7.70;5.63;;;;;;;27.06;49.79;100398.97;5017492;28;20545;-83
2021/06/09 09:40:17;;;;;;;5.95;5.32;;;;;;;27.13;49.26;100404.50;5017629;28;20090;-84
2021/06/09 09:42:47;;;;;;;6.75;4.97;;;;;;;27.22;48.89;100407.13;5017882;28;20060;-84
2021/06/09 09:45:29;;;;;;;10.60;5.22;;;;;;;27.27;48.63;100404.72;5035558;28;20160;-84
2021/06/09 09:48:12;;;;;;;5.38;4.65;;;;;;;27.35;49.00;100406.53;5037612;28;20053;-84
2021/06/09 09:50:48;;;;;;;8.80;4.40;;;;;;;27.44;48.23;100408.94;5037533;28;20052;-84
2021/06/09 09:53:22;;;;;;;5.35;4.15;;;;;;;27.51;47.45;100411.75;5037280;28;20059;-84
2021/06/09 09:55:58;;;;;;;4.50;4.10;;;;;;;27.58;47.66;100417.28;5037466;28;20059;-83
2021/06/09 09:58:34;;;;;;;5.03;4.53;;;;;;;27.67;47.57;100416.22;5037467;28;20065;-84
2021/06/09 10:01:15;;;;;;;4.78;4.35;;;;;;;27.79;47.89;100408.47;5036238;28;20094;-83
2021/06/09 10:04:01;;;;;;;5.75;3.88;;;;;;;27.94;47.50;100403.06;5039136;28;20048;-84
2021/06/09 10:06:38;;;;;;;4.30;3.90;;;;;;;28.03;47.13;100411.09;5037526;28;20400;-84
2021/06/09 10:09:25;;;;;;;4.38;3.83;;;;;;;28.16;47.49;100407.72;5037433;28;20049;-84
2021/06/09 10:11:54;;;;;;;3.83;3.50;;;;;;;28.33;47.20;100403.81;5037352;28;20135;-84
2021/06/09 10:14:39;;;;;;;4.22;3.83;;;;;;;28.48;45.78;100403.78;5036819;28;20045;-83
2021/06/09 10:17:15;;;;;;;7.82;4.43;;;;;;;28.66;45.76;100404.41;5034844;28;20084;-84
2021/06/09 10:20:08;;;;;;;5.95;4.00;;;;;;;28.79;43.64;100401.84;5036512;28;20492;-84
2021/06/09 10:22:36;;;;;;;3.80;3.50;;;;;;;28.95;45.19;100406.19;5036691;28;20408;-84
2021/06/09 10:25:12;;;;;;;4.20;3.67;;;;;;;29.06;45.77;100398.56;5036397;28;20159;-84
2021/06/09 10:27:48;;;;;;;4.10;3.80;;;;;;;29.22;45.72;100395.59;5054091;28;20489;-84
2021/06/09 10:30:16;;;;;;;4.65;4.05;;;;;;;29.38;46.44;100397.16;5036422;28;20084;-84
2021/06/09 10:32:44;;;;;;;4.47;4.05;;;;;;;29.52;44.53;100394.59;5032767;28;20049;-84
2021/06/09 10:35:11;;;;;;;4.53;4.00;;;;;;;29.64;44.72;100384.88;5016388;28;20114;-84
2021/06/09 10:37:38;;;;;;;4.32;3.92;;;;;;;29.75;43.42;100390.78;5031565;28;20049;-84
2021/06/09 10:40:06;;;;;;;5.05;4.10;;;;;;;29.81;42.68;100399.97;5036062;28;20053;-84
2021/06/09 10:43:05;;;;;;;7.53;4.72;;;;;;;29.72;42.60;100400.16;5053950;28;20063;-84
2021/06/09 10:45:33;;;;;;;4.50;4.10;;;;;;;29.71;41.90;100389.50;5036281;28;20052;-83
2021/06/09 10:48:04;;;;;;;5.07;4.65;;;;;;;29.58;41.60;100391.09;5036755;28;20053;-84
2021/06/09 10:50:32;;;;;;;7.80;4.95;;;;;;;29.45;42.65;100389.06;5022114;28;20046;-84
2021/06/09 10:52:59;;;;;;;4.93;4.43;;;;;;;29.33;42.11;100387.94;5016700;28;20073;-84
2021/06/09 10:55:26;;;;;;;5.25;4.75;;;;;;;29.18;42.66;100388.03;5019469;28;20124;-83
2021/06/09 10:57:55;;;;;;;7.32;4.50;;;;;;;29.06;43.21;100385.00;5016259;28;20061;-84
2021/06/09 11:00:22;;;;;;;5.10;4.68;;;;;;;29.09;44.43;100384.63;5016771;28;20471;-83
2021/06/09 11:02:54;;;;;;;6.15;5.32;;;;;;;29.17;44.31;100381.78;5016642;28;20409;-84
2021/06/09 11:05:24;;;;;;;5.38;4.60;;;;;;;29.32;43.05;100388.97;5019645;28;20052;-84
2021/06/09 11:07:53;;;;;;;8.23;5.05;;;;;;;29.50;44.23;100386.63;5034511;28;20061;-83
2021/06/09 11:10:45;;;;;;;5.97;4.25;;;;;;;29.81;44.82;100391.84;5028784;28;20049;-84
2021/06/09 11:13:32;;;;;;;5.32;4.45;;;;;;;30.31;45.70;100386.25;5015705;28;20053;-84
2021/06/09 11:16:11;;;;;;;5.20;3.92;;;;;;;30.88;43.51;100391.47;5032502;28;20471;-84
2021/06/09 11:18:42;;;;;;;4.93;4.38;;;;;;;31.47;43.06;100385.44;5015702;28;20482;-83
2021/06/09 11:21:15;;;;;;;5.57;4.00;;;;;;;32.01;41.48;100377.16;5015594;28;20055;-84
2021/06/09 11:23:45;;;;;;;4.03;3.70;;;;;;;32.55;42.15;100382.38;5023220;28;20049;-84
2021/06/09 11:26:43;;;;;;;4.32;3.92;;;;;;;33.06;42.01;100381.63;5034523;28;20795;-84
2021/06/09 11:29:28;;;;;;;3.40;3.10;;;;;;;33.60;40.05;100375.72;5031281;28;20418;-84
2021/06/09 11:32:18;;;;;;;3.83;3.40;;;;;;;34.08;39.54;100376.88;5035601;28;20072;-84
2021/06/09 11:35:04;;;;;;;3.60;3.30;;;;;;;34.52;39.61;100367.66;5034102;28;20136;-84
2021/06/09 11:37:30;;;;;;;4.70;3.28;;;;;;;34.89;37.64;100383.13;5015573;28;20056;-84
2021/06/09 11:40:03;;;;;;;3.20;2.90;;;;;;;35.18;36.86;100384.16;5015794;28;20556;-84
2021/06/09 11:42:30;;;;;;;6.70;2.95;;;;;;;35.47;36.65;100381.53;5027784;28;20408;-84
2021/06/09 11:45:22;;;;;;;3.70;3.40;;;;;;;35.67;36.44;100372.16;5035001;28;20500;-84
2021/06/09 11:47:49;;;;;;;2.83;2.63;;;;;;;35.95;35.40;100370.53;5052826;28;20084;-84
2021/06/09 11:50:30;;;;;;;3.10;2.90;;;;;;;36.07;33.63;100373.22;5035497;28;20061;-84
2021/06/09 11:53:20;;;;;;;3.22;3.00;;;;;;;36.24;33.45;100370.59;5035708;28;20077;-85
2021/06/09 11:56:17;;;;;;;4.05;2.90;;;;;;;36.44;35.33;100363.81;5034758;28;20091;-85
2021/06/09 11:58:46;;;;;;;5.20;3.00;;;;;;;36.66;33.38;100357.63;5022319;28;20057;-85